Latest Coastal Weather Observations for Warrnambool

IDV60701

Issued at 3:02 am EDT Saturday 24 February 2018 (issued every 10 minutes, with the page automatically refreshed every 10 minutes)

About coastal observations | Map of coastal stations | Coastal observations for VIC | Marine services | Other Formats
Station Details ID: 090186 Name: WARRNAMBOOL AIRPORT NDB Lat: -38.29 Lon: 142.45 Height: 70.8 m
Data from the previous 72 hours. | See also: Recent months at Warrnambool
Date/Time
EDT
Temp
°C
Wind Pressure Rain since
9am
mm
Weather Cloud Vis
km
Sea
Height
m
Swell
Dir  Spd
kts
Gust
kts
hPa Trend Height
m
Period
s
Dir
24/03:00am 23.1 NNW 7 8 1001.1 - 0.6 - Cloudy - - - - -
24/02:30am 22.9 NNW 7 9 1001.2 - 0.6 - Cloudy - - - - -
24/02:00am 22.8 N 7 8 1001.1 - 0.6 - Partly cloudy - - - - -
24/01:30am 23.2 N 5 6 1001.5 - 0.6 - Cloudy - - - - -
24/01:00am 23.5 NNE 10 13 1001.9 - 0.6 - Partly cloudy - - - - -
24/12:30am 23.2 NNE 8 11 1001.7 - 0.6 - Partly cloudy - - - - -
24/12:00am 23.7 NE 9 12 1002.0 - 0.6 - Cloudy - - - - -
 
Date/Time
EDT
Temp
°C
Wind Pressure Rain since
9am
mm
Weather Cloud Vis
km
Sea
Height
m
Swell
Dir  Spd
kts
Gust
kts
hPa Trend Height
m
Period
s
Dir
23/11:30pm 23.8 NE 9 12 1002.1 - 0.6 - Partly cloudy - - - - -
23/11:00pm 22.1 ESE 6 8 1002.7 - 0.6 - - - - - - -
23/10:30pm 22.1 SE 3 5 1003.4 - 0.4 - Partly cloudy - - - - -
23/10:00pm 22.2 SE 3 4 1003.8 - 0.2 - Partly cloudy - - - - -
23/09:30pm 22.5 E 4 7 1003.1 - 0.2 - Partly cloudy - - - - -
23/09:00pm 22.3 E 6 9 1002.7 - 0.2 - Cloudy - - - - -
23/08:30pm 22.3 ESE 5 7 1003.0 - 0.2 - Partly cloudy - - - - -
23/08:00pm 21.8 ESE 7 11 1002.6 - 0.2 - Partly cloudy - - - - -
23/07:30pm 21.1 S 12 17 1002.6 - 0.2 - Cloudy - - - - -
23/07:00pm 24.4 WNW 12 27 1003.8 - 0.0 - Partly cloudy - - - - -
23/06:57pm 26.3 NNW 11 27 1003.7 - 0.0 - Partly cloudy - - - - -
23/06:30pm 30.9 NE 10 16 1002.1 - 0.0 - Partly cloudy - - - - -
23/06:00pm 30.8 E 7 9 1001.3 - 0.0 - Cloudy - - - - -
23/05:30pm 30.5 E 7 10 1001.6 - 0.0 - Partly cloudy - - - - -
23/05:00pm 29.5 E 10 14 1002.2 - 0.0 - Cloudy - - - - -
23/04:30pm 27.1 ESE 9 13 1002.9 - 0.0 - Partly cloudy - - - - -
23/04:00pm 25.4 ESE 10 12 1003.7 - 0.0 - Cloudy - - - - -
23/03:30pm 24.7 SE 11 15 1004.3 - 0.0 - Cloudy - - - - -
23/03:00pm 24.0 SSE 12 16 1005.3 - 0.0 - Cloudy - - - - -
23/02:30pm 24.7 S 11 14 1005.3 - 0.0 - Cloudy - - - - -
23/02:00pm 25.5 SSE 11 14 1005.2 - 0.0 - Cloudy - - - - -
23/01:30pm 25.7 SE 11 14 1005.3 - 0.0 - Partly cloudy - - - - -
23/01:00pm 24.4 SE 13 16 1005.7 - 0.0 - - - - - - -
23/12:30pm 22.9 SSE 14 19 1006.3 - 0.0 - Cloudy - - - - -
23/12:00pm 22.3 SE 9 13 1006.6 - 0.0 - Cloudy - - - - -
23/11:30am 25.3 S 5 8 1007.5 - 0.0 - - - - - - -
23/11:00am 22.8 SSW 14 18 1007.6 - 0.0 - Partly cloudy - - - - -
23/10:30am 24.2 NE 12 17 1006.5 - 0.0 - Partly cloudy - - - - -
23/10:00am 22.5 ENE 9 14 1006.8 - 0.0 - Partly cloudy - - - - -
23/09:30am 21.3 ENE 9 14 1007.2 - 0.0 - Partly cloudy - - - - -
23/09:00am 20.6 ENE 8 13 1007.6 - 11.4 - Cloudy - - - - -
23/08:30am 20.1 ENE 10 17 1008.0 - 11.4 - Partly cloudy - - - - -
23/08:00am 19.4 NE 9 12 1008.3 - 11.4 - Partly cloudy - - - - -
23/07:30am 19.1 ENE 8 11 1008.6 - 11.4 - - - - - - -
23/07:00am 19.0 NE 8 12 1008.7 - 11.4 - Partly cloudy - - - - -
23/06:30am 19.0 ENE 6 8 1008.8 - 11.2 - Cloudy - - - - -
23/06:00am 18.8 ENE 6 9 1008.8 - 11.2 - Cloudy - - - - -
23/05:30am 18.8 ENE 5 8 1009.3 - 11.2 - Partly cloudy 10 - - - -
23/05:00am 18.8 ENE 5 6 1009.5 - 11.2 - Partly cloudy 10 - - - -
23/04:30am 18.8 NNE 5 7 1009.7 - 10.4 - Partly cloudy 10 - - - -
23/04:00am 18.8 NNE 8 12 1009.6 - 10.4 - Partly cloudy 10 - - - -
23/03:30am 18.8 NNE 8 11 1009.8 - 10.2 - Partly cloudy 10 - - - -
23/03:00am 18.8 NNE 7 9 1010.0 - 9.6 Rain Cloudy 10 - - - -
23/02:30am 18.8 NNE 9 11 1010.2 - 9.4 - Partly cloudy 10 - - - -
23/02:00am 18.6 NNE 10 13 1010.5 - 9.4 - Partly cloudy 10 - - - -
23/01:30am 18.7 NNE 10 14 1010.8 - 9.0 - Cloudy 10 - - - -
23/01:00am 18.7 NE 9 11 1011.1 - 9.0 - Partly cloudy - - - - -
23/12:30am 18.6 NNE 9 12 1011.6 - 9.0 - Partly cloudy - - - - -
23/12:00am 18.7 NNE 9 11 1012.0 - 8.8 Rain Cloudy 10 - - - -
 
Date/Time
EDT
Temp
°C
Wind Pressure Rain since
9am
mm
Weather Cloud Vis
km
Sea
Height
m
Swell
Dir  Spd
kts
Gust
kts
hPa Trend Height
m
Period
s
Dir
22/11:30pm 18.6 NNE 6 8 1012.4 - 7.4 - Partly cloudy 10 - - - -
22/11:00pm 18.6 NNE 7 9 1012.6 - 6.6 - Partly cloudy 10 - - - -
22/10:30pm 18.6 NE 7 9 1012.7 - 5.8 - Cloudy 10 - - - -
22/10:00pm 18.6 NNE 7 9 1012.9 - 5.2 - Partly cloudy 10 - - - -
22/09:30pm 18.5 NNE 7 10 1012.8 - 4.8 - Cloudy 10 - - - -
22/09:00pm 18.5 NNE 8 11 1012.5 - 4.2 Rain Cloudy 10 - - - -
22/08:30pm 18.7 NNE 9 11 1012.5 - 4.0 - Partly cloudy 10 - - - -
22/08:00pm 19.1 NNE 10 13 1012.2 - 3.4 - Cloudy 10 - - - -
22/07:30pm 19.7 NNE 11 14 1012.0 - 3.2 - Cloudy 10 - - - -
22/07:00pm 20.9 NNE 9 12 1011.8 - 3.0 - Partly cloudy 10 - - - -
22/06:30pm 21.7 NNE 13 17 1011.6 - 3.0 - Partly cloudy 10 - - - -
22/06:00pm 24.1 NNE 13 19 1011.3 - 3.0 - Mostly cloudy 10 - - - -
22/05:30pm 24.4 NNE 11 15 1011.2 - 3.0 - Partly cloudy 10 - - - -
22/05:00pm 24.5 NNE 13 19 1011.3 - 3.0 - Partly cloudy 10 - - - -
22/04:30pm 25.0 NNE 13 19 1010.9 - 2.8 - Cloudy 10 - - - -
22/04:00pm 24.9 NNE 11 17 1011.3 - 2.8 - Cloudy 10 - - - -
22/03:30pm 25.6 NNE 15 23 1011.4 - 2.8 - Partly cloudy 10 - - - -
22/03:00pm 25.3 ENE 12 16 1011.6 - 2.8 - Cloudy 10 - - - -
22/02:30pm 23.9 E 9 11 1011.9 - 2.8 - Cloudy 10 - - - -
22/02:00pm 22.8 ENE 10 14 1012.1 - 2.8 - Cloudy 10 - - - -
22/01:30pm 22.3 ENE 10 14 1012.5 - 2.8 - Cloudy 10 - - - -
22/01:00pm 22.4 ENE 9 13 1012.8 - 2.8 - Partly cloudy 10 - - - -
22/12:30pm 21.1 ENE 8 11 1013.1 - 2.8 - Partly cloudy 10 - - - -
22/12:00pm 19.4 ENE 7 11 1013.5 - 2.8 Showers Mostly cloudy 10 - - - -
22/11:30am 19.5 NE 9 13 1013.7 - 2.2 - Cloudy 10 - - - -
22/11:04am 20.1 NNE 12 18 1013.7 - 1.8 - Partly cloudy 10 - - - -
22/11:00am 20.1 NNE 13 18 1013.7 - 1.8 - Partly cloudy 9 - - - -
22/10:51am 20.8 N 12 17 1013.7 - 1.2 - Partly cloudy 5 - - - -
22/10:30am 25.0 NE 13 18 1013.1 - 0.2 - Cloudy 10 - - - -
22/10:00am 24.0 NE 11 16 1012.8 - 0.0 - Cloudy 10 - - - -
22/09:30am 23.0 NE 12 17 1012.9 - 0.0 - Partly cloudy 10 - - - -
22/09:00am 22.1 NE 11 15 1012.9 - 0.4 - - 10 - - - -
22/08:30am 21.8 NE 11 17 1012.7 - 0.4 - Partly cloudy 10 - - - -
22/08:00am 20.9 ENE 10 14 1012.3 - 0.4 - Partly cloudy 10 - - - -
22/07:30am 20.7 ENE 9 13 1012.2 - 0.4 - Cloudy 10 - - - -
22/07:00am 20.7 NE 9 14 1012.4 - 0.4 - Cloudy 10 - - - -
22/06:30am 20.1 ENE 9 12 1012.0 - 0.4 - Cloudy 10 - - - -
22/06:00am 19.8 ENE 9 13 1011.9 - 0.4 Showers Cloudy 10 - - - -
22/05:30am 20.0 ENE 8 11 1012.0 - 0.4 - Cloudy 10 - - - -
22/05:00am 19.7 ENE 9 11 1012.1 - 0.4 - Cloudy 10 - - - -
22/04:30am 19.8 ENE 8 13 1012.3 - 0.4 - Cloudy 10 - - - -
22/04:00am 19.4 E 9 13 1012.0 - 0.4 - Cloudy 10 - - - -
22/03:30am 19.1 E 8 10 1012.1 - 0.4 - Cloudy 10 - - - -
22/03:00am 19.2 E 7 9 1012.4 - 0.4 Showers Mostly cloudy 10 - - - -
22/02:30am 20.0 NE 7 9 1012.8 - 0.4 - Cloudy 10 - - - -
22/02:00am 20.3 ENE 7 9 1012.9 - 0.4 - Cloudy 10 - - - -
22/01:30am 20.3 ENE 6 8 1013.1 - 0.4 - Cloudy 10 - - - -
22/01:00am 20.0 ENE 5 6 1013.4 - 0.4 - Cloudy 10 - - - -
22/12:30am 19.0 E 3 4 1013.6 - 0.4 - Cloudy 10 - - - -
22/12:00am 19.1 CALM 0 0 1014.0 - 0.0 Showers Cloudy 10 - - - -
 
Date/Time
EDT
Temp
°C
Wind Pressure Rain since
9am
mm
Weather Cloud Vis
km
Sea
Height
m
Swell
Dir  Spd
kts
Gust
kts
hPa Trend Height
m
Period
s
Dir
21/11:30pm 19.2 CALM 0 0 1014.1 - 0.0 - Cloudy 10 - - - -
21/11:00pm 19.7 CALM 0 0 1014.2 - 0.0 - Cloudy 10 - - - -
21/10:30pm 20.5 E 3 5 1014.2 - 0.0 - Cloudy 10 - - - -
21/10:00pm 20.8 E 4 6 1014.3 - 0.0 - Cloudy 10 - - - -
21/09:30pm 21.0 ESE 5 7 1014.0 - 0.0 - Cloudy 10 - - - -
21/09:00pm 20.8 SE 7 9 1013.8 - 0.0 - Cloudy 10 - - - -
21/08:30pm 21.3 SE 7 9 1013.8 - 0.0 - Cloudy 10 - - - -
21/08:00pm 21.4 SSE 5 6 1013.8 - 0.0 - Cloudy 10 - - - -
21/07:30pm 22.1 SSE 6 9 1013.5 - 0.0 - Cloudy 10 - - - -
21/07:00pm 22.6 SSE 6 8 1013.2 - 0.0 - Cloudy 10 - - - -
21/06:30pm 22.8 SE 6 8 1013.1 - 0.0 - Cloudy 10 - - - -
21/06:00pm 22.6 S 8 11 1013.3 - 0.0 - Cloudy 10 - - - -
21/05:30pm 22.3 S 9 12 1013.1 - 0.0 - Partly cloudy 10 - - - -
21/05:00pm 22.1 SSE 9 11 1013.0 - 0.0 - Cloudy 10 - - - -
21/04:30pm 21.5 S 7 9 1013.5 - 0.0 - Cloudy 10 - - - -
21/04:00pm 20.9 SE 8 10 1013.4 - 0.0 - Partly cloudy 10 - - - -
21/03:30pm 21.0 S 7 9 1013.6 - 0.0 - Cloudy 10 - - - -
21/03:00pm 22.6 SSW 9 12 1013.9 - 0.0 Rain Mostly cloudy 10 - - - -
21/02:30pm 23.4 SSW 12 14 1013.9 - 0.0 - Partly cloudy 10 - - - -
21/02:00pm 24.2 SW 10 13 1013.6 - 0.0 - Cloudy 10 - - - -
21/01:30pm 26.6 SSW 7 10 1012.9 - 0.0 - Partly cloudy 10 - - - -
21/01:00pm 29.1 W 9 13 1013.1 - 0.0 - Cloudy 10 - - - -
21/12:30pm 28.9 NNW 9 12 1013.0 - 0.0 - Cloudy 10 - - - -
21/12:00pm 28.5 N 13 17 1013.0 - 0.0 - Cloudy 10 - - - -
21/11:30am 27.6 NNE 13 17 1013.0 - 0.0 - Partly cloudy 10 - - - -
21/11:00am 27.2 N 14 17 1013.0 - 0.0 - - 10 - - - -
21/10:30am 25.0 NNE 11 16 1013.1 - 0.0 - Partly cloudy 10 - - - -
21/10:00am 22.9 NE 11 14 1013.2 - 0.0 - Partly cloudy 10 - - - -
21/09:30am 20.5 NE 11 15 1013.4 - 0.0 - Partly cloudy 10 - - - -
21/09:00am 18.7 ENE 9 12 1013.2 - 0.0 - Cloudy 10 - - - -
21/08:30am 17.3 ENE 8 11 1013.4 - 0.0 - - 10 - - - -
21/08:00am 16.8 ENE 8 11 1013.2 - 0.0 - - 10 - - - -
21/07:30am 16.5 ENE 7 9 1013.1 - 0.0 - - 10 - - - -
21/07:00am 16.5 ENE 9 13 1013.1 - 0.0 - Partly cloudy 10 - - - -
21/06:30am 16.6 NE 9 13 1012.7 - 0.0 - - 10 - - - -
21/06:00am 16.7 ENE 8 12 1012.4 - 0.0 - Cloudy 10 - - - -
21/05:30am 16.9 NE 11 16 1012.4 - 0.0 - - 10 - - - -
21/05:00am 16.8 NE 8 14 1012.3 - 0.0 - - 10 - - - -
21/04:30am 17.0 NE 9 15 1012.4 - 0.0 - - 10 - - - -
21/04:00am 17.2 NE 10 14 1012.5 - 0.0 - - 10 - - - -
21/03:30am 17.5 NE 10 13 1012.7 - 0.0 - - 10 - - - -

Other Formats:

Comma delimited format used in spreadsheet applications
http://www.bom.gov.au/fwo/IDV60701/IDV60701.94837.axf

JavaScript Object Notation format (JSON) in row-major order
http://www.bom.gov.au/fwo/IDV60701/IDV60701.94837.json